Time;durP1;ratioP1;P1;durP2;ratioP2;P2;SDS_P1;SDS_P2;PMS_P1;PMS_P2;Temp;Humidity;BMP_temperature;BMP_pressure;BME280_temperature;BME280_humidity;BME280_pressure;Samples;Min_cycle;Max_cycle;Signal;HPM_P1;HPM_P2
2021/06/08 00:01:27;;;;;;;;;;;;;;;23.29;62.86;99636.44;5091821;28;20275;-52
2021/06/08 00:03:52;;;;;;;;;;;;;;;23.32;62.40;99636.66;5091709;28;19947;-50
2021/06/08 00:06:18;;;;;;;;;;;;;;;23.31;62.57;99637.75;5091399;28;19955;-50
2021/06/08 00:08:43;;;;;;;;;;;;;;;23.28;62.76;99630.16;5091446;28;19920;-52
2021/06/08 00:11:08;;;;;;;;;;;;;;;23.26;62.67;99637.00;5091391;28;19912;-51
2021/06/08 00:13:34;;;;;;;;;;;;;;;23.27;62.59;99627.78;5091834;28;20021;-50
2021/06/08 00:15:59;;;;;;;;;;;;;;;23.37;62.01;99622.19;5091427;28;20405;-51
2021/06/08 00:18:24;;;;;;;;;;;;;;;23.31;62.22;99616.03;5091440;28;19920;-49
2021/06/08 00:20:49;;;;;;;;;;;;;;;23.34;62.08;99618.19;5091552;28;19965;-49
2021/06/08 00:23:15;;;;;;;;;;;;;;;23.27;62.43;99612.28;5108590;28;20083;-51
2021/06/08 00:25:40;;;;;;;;;;;;;;;23.31;62.02;99616.03;5111613;28;19968;-38
2021/06/08 00:28:07;;;;;;;;;;;;;;;23.31;61.64;99613.31;5111173;28;19935;-38
2021/06/08 00:30:32;;;;;;;;;;;;;;;23.20;62.00;99615.34;5105280;28;19919;-38
2021/06/08 00:32:58;;;;;;;;;;;;;;;23.06;62.45;99619.06;5091320;28;19912;-38
2021/06/08 00:35:25;;;;;;;;;;;;;;;22.80;63.16;99614.69;5091410;28;20399;-37
2021/06/08 00:37:50;;;;;;;;;;;;;;;22.94;62.66;99609.41;5091223;28;20261;-37
2021/06/08 00:40:16;;;;;;;;;;;;;;;22.84;63.03;99607.56;5091028;28;19919;-38
2021/06/08 00:42:41;;;;;;;;;;;;;;;22.53;63.49;99609.00;5091366;28;20003;-37
2021/06/08 00:45:07;;;;;;;;;;;;;;;22.43;63.80;99607.22;5091349;28;20333;-37
2021/06/08 00:47:32;;;;;;;;;;;;;;;22.54;63.60;99606.03;5091186;28;19951;-44
2021/06/08 00:49:57;;;;;;;;;;;;;;;22.22;64.32;99598.44;5091188;28;19920;-38
2021/06/08 00:52:22;;;;;;;;;;;;;;;22.44;63.37;99593.34;5091431;28;19919;-38
2021/06/08 00:54:48;;;;;;;;;;;;;;;22.38;63.41;99594.50;5091209;28;19920;-38
2021/06/08 00:57:13;;;;;;;;;;;;;;;22.09;64.45;99597.16;5091265;28;19912;-38
2021/06/08 00:59:38;;;;;;;;;;;;;;;22.31;63.80;99590.50;5091147;28;19912;-38
2021/06/08 01:02:04;;;;;;;;;;;;;;;22.09;64.57;99594.47;5091413;28;19912;-38
2021/06/08 01:04:29;;;;;;;;;;;;;;;21.95;64.94;99599.72;5090903;28;19969;-38
2021/06/08 01:06:54;;;;;;;;;;;;;;;22.15;64.07;99598.72;5091038;28;19912;-38
2021/06/08 01:09:19;;;;;;;;;;;;;;;22.10;64.26;99595.25;5090970;28;19916;-38
2021/06/08 01:11:45;;;;;;;;;;;;;;;21.70;65.14;99592.56;5090713;28;19916;-38
2021/06/08 01:14:10;;;;;;;;;;;;;;;21.78;65.44;99601.97;5090967;28;19920;-38
2021/06/08 01:16:35;;;;;;;;;;;;;;;21.59;65.79;99601.81;5090686;28;20422;-38
2021/06/08 01:19:00;;;;;;;;;;;;;;;21.36;66.47;99593.28;5091013;28;19916;-38
2021/06/08 01:21:27;;;;;;;;;;;;;;;21.69;65.50;99593.66;5090730;28;19916;-38
2021/06/08 01:23:52;;;;;;;;;;;;;;;21.82;65.27;99590.31;5089618;28;19961;-38
2021/06/08 01:26:21;;;;;;;;;;;;;;;22.13;64.32;99583.88;5088919;28;20364;-38
2021/06/08 01:28:46;;;;;;;;;;;;;;;22.34;63.44;99589.94;5090543;28;20356;-38
2021/06/08 01:31:12;;;;;;;;;;;;;;;22.42;63.46;99592.03;5089546;28;20049;-38
2021/06/08 01:33:39;;;;;;;;;;;;;;;22.49;63.08;99587.09;5090216;28;19916;-36
2021/06/08 01:36:04;;;;;;;;;;;;;;;22.49;62.99;99584.38;5088928;28;19974;-38
2021/06/08 01:38:30;;;;;;;;;;;;;;;22.53;62.99;99585.41;5088323;28;19920;-38
2021/06/08 01:40:55;;;;;;;;;;;;;;;22.53;62.96;99582.69;5090446;28;19916;-38
2021/06/08 01:43:20;;;;;;;;;;;;;;;22.48;63.07;99588.16;5093808;28;19935;-36
2021/06/08 01:45:49;;;;;;;;;;;;;;;22.56;62.91;99589.44;5092347;28;19916;-38
2021/06/08 01:48:15;;;;;;;;;;;;;;;22.56;62.83;99592.16;5093883;28;19994;-37
2021/06/08 01:50:40;;;;;;;;;;;;;;;22.52;62.87;99588.41;5093672;28;20407;-38
2021/06/08 01:53:11;;;;;;;;;;;;;;;22.54;63.14;99588.91;5092420;28;19912;-37
2021/06/08 01:55:37;;;;;;;;;;;;;;;22.55;62.63;99585.94;5093038;28;19912;-38
2021/06/08 01:58:11;;;;;;;;;;;;;;;22.51;62.61;99594.94;5094755;28;19969;-38
2021/06/08 02:00:40;;;;;;;;;;;;;;;22.33;63.37;99599.16;5093149;28;19920;-38
2021/06/08 02:03:08;;;;;;;;;;;;;;;22.23;63.54;99595.41;5094573;28;19970;-38
2021/06/08 02:05:36;;;;;;;;;;;;;;;22.37;62.98;99589.34;5094582;28;20330;-38
2021/06/08 02:08:21;;;;;;;;;;;;;;;22.47;62.31;99585.75;5092652;28;19919;-38
2021/06/08 02:10:49;;;;;;;;;;;;;;;22.02;62.74;99592.06;5094099;28;19958;-38
2021/06/08 02:13:28;;;;;;;;;;;;;;;22.12;62.07;99585.75;5094489;28;19920;-38
2021/06/08 02:15:56;;;;;;;;;;;;;;;22.29;61.87;99584.56;5092828;28;19916;-38
2021/06/08 02:18:23;;;;;;;;;;;;;;;22.43;61.61;99594.47;5093663;28;19928;-36
2021/06/08 02:20:50;;;;;;;;;;;;;;;22.39;61.65;99588.00;5094455;28;19968;-38
2021/06/08 02:23:16;;;;;;;;;;;;;;;22.30;62.37;99594.31;5092597;28;19919;-37
2021/06/08 02:25:42;;;;;;;;;;;;;;;22.19;62.04;99590.84;5092746;28;19920;-37
2021/06/08 02:28:10;;;;;;;;;;;;;;;22.31;61.44;99585.88;5092856;28;19919;-37
2021/06/08 02:30:35;;;;;;;;;;;;;;;22.22;61.51;99585.66;5093912;28;19912;-38
2021/06/08 02:33:01;;;;;;;;;;;;;;;22.32;60.90;99587.50;5092507;28;19917;-38
2021/06/08 02:35:26;;;;;;;;;;;;;;;22.45;60.71;99580.63;5093955;28;19912;-38
2021/06/08 02:37:51;;;;;;;;;;;;;;;22.51;60.64;99590.31;5092309;28;20272;-38
2021/06/08 02:40:17;;;;;;;;;;;;;;;22.46;60.64;99584.94;5093604;28;19969;-38
2021/06/08 02:42:42;;;;;;;;;;;;;;;22.48;60.66;99593.59;5092015;28;19943;-38
2021/06/08 02:45:08;;;;;;;;;;;;;;;22.45;60.85;99586.03;5092832;28;19912;-38
2021/06/08 02:47:33;;;;;;;;;;;;;;;22.48;60.56;99587.38;5092659;28;19912;-38
2021/06/08 02:49:58;;;;;;;;;;;;;;;22.49;60.39;99589.78;5091921;28;19912;-38
2021/06/08 02:52:24;;;;;;;;;;;;;;;22.55;59.96;99591.34;5091256;28;19932;-38
2021/06/08 02:54:49;;;;;;;;;;;;;;;22.44;60.59;99587.94;5091862;28;19920;-38
2021/06/08 02:57:15;;;;;;;;;;;;;;;22.28;61.35;99585.66;5091992;28;20011;-38
2021/06/08 02:59:40;;;;;;;;;;;;;;;22.51;60.58;99589.50;5093295;28;19961;-37
2021/06/08 03:02:06;;;;;;;;;;;;;;;22.64;60.00;99600.47;5093351;28;19919;-38
2021/06/08 03:04:35;;;;;;;;;;;;;;;22.58;60.22;99593.50;5091812;28;20241;-38
2021/06/08 03:07:00;;;;;;;;;;;;;;;22.67;59.58;99599.09;5091858;28;19931;-38
2021/06/08 03:09:58;;;;;;;;;;;;;;;22.73;59.19;99603.38;5091911;28;19912;-38
2021/06/08 03:12:29;;;;;;;;;;;;;;;22.57;59.48;99605.44;5080299;28;19947;-37
2021/06/08 03:14:54;;;;;;;;;;;;;;;22.48;59.93;99600.91;5092714;28;20311;-37
2021/06/08 03:17:21;;;;;;;;;;;;;;;22.52;59.94;99593.81;5091272;28;19924;-39
2021/06/08 03:19:47;;;;;;;;;;;;;;;22.39;59.98;99598.84;5092897;28;19912;-37
2021/06/08 03:22:16;;;;;;;;;;;;;;;22.15;60.74;99606.88;5099557;28;20271;-37
2021/06/08 03:24:42;;;;;;;;;;;;;;;22.03;61.40;99612.66;5113013;28;19918;-37
2021/06/08 03:27:08;;;;;;;;;;;;;;;21.97;61.43;99607.53;5112169;28;19912;-37
2021/06/08 03:29:33;;;;;;;;;;;;;;;21.93;61.84;99610.00;5111862;28;19911;-38
2021/06/08 03:31:58;;;;;;;;;;;;;;;21.99;61.57;99613.47;5094588;28;19912;-38
2021/06/08 03:34:23;;;;;;;;;;;;;;;22.11;61.00;99616.66;5091295;28;19916;-38
2021/06/08 03:36:50;;;;;;;;;;;;;;;21.96;61.43;99608.66;5091976;28;19912;-37
2021/06/08 03:39:15;;;;;;;;;;;;;;;21.95;61.88;99609.72;5090029;28;19923;-38
2021/06/08 03:41:44;;;;;;;;;;;;;;;21.94;61.43;99605.41;5091013;28;19999;-38
2021/06/08 03:44:09;;;;;;;;;;;;;;;22.06;61.21;99603.94;5090201;28;19912;-38
2021/06/08 03:46:35;;;;;;;;;;;;;;;22.17;60.88;99603.88;5091272;28;20373;-38
2021/06/08 03:49:00;;;;;;;;;;;;;;;22.37;60.38;99605.63;5089984;28;20030;-37
2021/06/08 03:51:27;;;;;;;;;;;;;;;22.57;59.99;99610.06;5089921;28;20023;-37
2021/06/08 03:53:52;;;;;;;;;;;;;;;22.72;60.10;99609.09;5090870;28;20354;-39
2021/06/08 03:56:17;;;;;;;;;;;;;;;22.87;59.61;99605.41;5090270;28;19964;-37
2021/06/08 03:58:43;;;;;;;;;;;;;;;23.02;59.08;99611.47;5091411;28;19912;-38
2021/06/08 04:01:08;;;;;;;;;;;;;;;23.01;59.04;99609.84;5090232;28;19947;-38
2021/06/08 04:03:33;;;;;;;;;;;;;;;23.16;58.66;99618.94;5090174;28;19918;-38
2021/06/08 04:05:59;;;;;;;;;;;;;;;23.14;58.34;99624.66;5089718;28;19912;-38
2021/06/08 04:08:27;;;;;;;;;;;;;;;23.16;58.28;99629.78;5089628;28;20006;-38
2021/06/08 04:10:53;;;;;;;;;;;;;;;23.35;57.36;99622.50;5091307;28;20384;-38
2021/06/08 04:13:18;;;;;;;;;;;;;;;23.50;56.97;99626.91;5090031;28;19998;-36
2021/06/08 04:15:43;;;;;;;;;;;;;;;23.21;57.84;99625.13;5090987;28;20437;-37
2021/06/08 04:18:09;;;;;;;;;;;;;;;23.62;57.07;99621.84;5089410;28;19939;-38
2021/06/08 04:20:34;;;;;;;;;;;;;;;24.04;56.05;99630.22;5090879;28;20349;-38
2021/06/08 04:23:00;;;;;;;;;;;;;;;24.42;54.93;99638.31;5104417;28;19911;-38
2021/06/08 04:25:26;;;;;;;;;;;;;;;24.38;54.88;99634.59;5111406;28;19912;-38
2021/06/08 04:27:52;;;;;;;;;;;;;;;24.75;54.54;99639.13;5109987;28;20024;-38
2021/06/08 04:30:17;;;;;;;;;;;;;;;24.87;54.02;99641.34;5105852;28;20003;-37
2021/06/08 04:32:43;;;;;;;;;;;;;;;24.98;53.05;99639.25;5090345;28;19961;-37
2021/06/08 04:35:08;;;;;;;;;;;;;;;25.20;52.21;99633.09;5090688;28;19916;-38
2021/06/08 04:37:34;;;;;;;;;;;;;;;24.91;52.87;99636.94;5090495;28;20287;-37
2021/06/08 04:39:59;;;;;;;;;;;;;;;25.49;51.90;99638.25;5090138;28;19920;-38
2021/06/08 04:42:25;;;;;;;;;;;;;;;25.82;51.67;99638.06;5090018;28;19999;-38
2021/06/08 04:44:51;;;;;;;;;;;;;;;26.05;50.54;99635.38;5090398;28;19952;-38
2021/06/08 04:47:17;;;;;;;;;;;;;;;26.25;50.19;99643.06;5090418;28;19912;-37
2021/06/08 04:49:42;;;;;;;;;;;;;;;26.55;49.84;99650.78;5083578;28;20308;-38
2021/06/08 04:52:07;;;;;;;;;;;;;;;26.68;48.61;99650.72;5078915;28;19919;-38
2021/06/08 04:54:33;;;;;;;;;;;;;;;27.04;47.94;99648.97;5085748;28;19920;-38
2021/06/08 04:56:59;;;;;;;;;;;;;;;27.30;47.11;99646.34;5080409;28;19951;-38
2021/06/08 04:59:30;;;;;;;;;;;;;;;27.37;47.20;99652.13;5085505;28;19916;-38
2021/06/08 05:01:55;;;;;;;;;;;;;;;27.54;46.33;99648.63;5090529;28;20017;-38
2021/06/08 05:04:20;;;;;;;;;;;;;;;27.64;46.43;99650.25;5123372;27;20600;-38
2021/06/08 05:06:51;;;;;;;;;;;;;;;27.91;46.00;99646.44;5123039;27;19912;-38
2021/06/08 05:09:18;;;;;;;;;;;;;;;28.15;45.52;99653.34;5122892;27;19913;-39
2021/06/08 05:11:47;;;;;;;;;;;;;;;28.21;45.11;99657.53;5089806;28;19912;-38
2021/06/08 05:14:12;;;;;;;;;;;;;;;28.19;45.02;99654.31;5122501;27;19928;-39
2021/06/08 05:16:39;;;;;;;;;;;;;;;28.14;44.65;99658.03;5089691;28;19920;-39
2021/06/08 05:19:05;;;;;;;;;;;;;;;28.08;45.02;99659.31;5121725;28;20428;-38
2021/06/08 05:21:30;;;;;;;;;;;;;;;28.23;44.41;99655.28;5124523;28;19951;-39
2021/06/08 05:23:56;;;;;;;;;;;;;;;28.25;43.33;99658.47;5110303;28;20364;-39
2021/06/08 05:26:22;;;;;;;;;;;;;;;28.65;42.77;99661.00;5110338;28;20064;-38
2021/06/08 05:28:47;;;;;;;;;;;;;;;29.08;41.85;99660.06;5110327;28;19911;-39
2021/06/08 05:31:16;;;;;;;;;;;;;;;29.42;41.15;99666.50;5098049;28;19916;-38
2021/06/08 05:33:41;;;;;;;;;;;;;;;29.23;40.87;99659.53;5089828;28;20595;-39
2021/06/08 05:36:07;;;;;;;;;;;;;;;29.28;40.22;99657.72;5089621;28;19912;-38
2021/06/08 05:38:36;;;;;;;;;;;;;;;29.58;40.06;99666.72;5089886;28;19920;-39
2021/06/08 05:41:05;;;;;;;;;;;;;;;29.50;40.60;99662.91;5089821;28;20551;-37
2021/06/08 05:43:30;;;;;;;;;;;;;;;29.73;40.62;99659.88;5089872;28;19982;-38
2021/06/08 05:45:55;;;;;;;;;;;;;;;29.66;39.86;99663.13;5089776;28;19916;-38
2021/06/08 05:48:21;;;;;;;;;;;;;;;29.61;39.51;99647.69;5089451;28;19924;-38
2021/06/08 05:50:46;;;;;;;;;;;;;;;29.52;39.50;99657.91;5089481;28;20384;-38
2021/06/08 05:53:12;;;;;;;;;;;;;;;29.60;40.47;99662.50;5089333;28;19912;-39
2021/06/08 05:55:37;;;;;;;;;;;;;;;29.58;40.00;99669.47;5088644;28;19919;-38
2021/06/08 05:58:03;;;;;;;;;;;;;;;29.79;40.16;99664.81;5088223;28;20268;-39
2021/06/08 06:00:28;;;;;;;;;;;;;;;29.47;41.11;99669.03;5088341;28;19912;-39
2021/06/08 06:02:54;;;;;;;;;;;;;;;29.80;40.14;99673.88;5088503;28;19965;-38
2021/06/08 06:05:19;;;;;;;;;;;;;;;30.33;39.32;99672.31;5088465;28;19919;-38
2021/06/08 06:07:44;;;;;;;;;;;;;;;30.68;38.46;99663.69;5089596;28;19925;-38
2021/06/08 06:10:10;;;;;;;;;;;;;;;30.89;38.56;99665.56;5088360;28;19935;-38
2021/06/08 06:12:36;;;;;;;;;;;;;;;30.78;38.71;99670.69;5089387;28;19994;-39
2021/06/08 06:15:04;;;;;;;;;;;;;;;30.80;38.86;99668.41;5089336;28;20350;-38
2021/06/08 06:17:31;;;;;;;;;;;;;;;30.91;38.94;99660.56;5089099;28;19924;-38
2021/06/08 06:19:56;;;;;;;;;;;;;;;31.17;37.72;99652.78;5089186;28;19919;-39
2021/06/08 06:22:21;;;;;;;;;;;;;;;31.04;37.82;99667.66;5088118;28;19912;-38
2021/06/08 06:24:46;;;;;;;;;;;;;;;30.04;39.35;99666.91;5088095;28;19920;-37
2021/06/08 06:27:12;;;;;;;;;;;;;;;30.34;38.74;99662.13;5091839;28;20364;-37
2021/06/08 06:29:37;;;;;;;;;;;;;;;30.71;37.60;99659.47;5092839;28;20326;-37
2021/06/08 06:32:02;;;;;;;;;;;;;;;31.16;37.92;99662.16;5092561;28;19918;-38
2021/06/08 06:34:28;;;;;;;;;;;;;;;31.88;36.39;99664.38;5091134;28;19916;-39
2021/06/08 06:36:56;;;;;;;;;;;;;;;32.51;35.46;99661.03;5092795;28;19912;-38
2021/06/08 06:39:23;;;;;;;;;;;;;;;32.23;35.68;99658.28;5091307;28;19918;-38
2021/06/08 06:41:48;;;;;;;;;;;;;;;32.49;35.48;99663.31;5092613;28;19912;-38
2021/06/08 06:44:14;;;;;;;;;;;;;;;33.19;34.45;99663.94;5093113;28;19927;-38
2021/06/08 06:46:40;;;;;;;;;;;;;;;33.62;34.26;99659.38;5092366;28;19988;-38
2021/06/08 06:49:06;;;;;;;;;;;;;;;33.92;33.19;99658.84;5093231;28;20375;-39
2021/06/08 06:51:31;;;;;;;;;;;;;;;33.98;32.86;99660.16;5091599;28;19912;-38
2021/06/08 06:53:57;;;;;;;;;;;;;;;34.47;31.95;99654.03;5092010;28;19973;-38
2021/06/08 06:56:22;;;;;;;;;;;;;;;33.71;33.11;99660.00;5092982;28;20332;-38
2021/06/08 06:58:48;;;;;;;;;;;;;;;33.55;33.00;99659.22;5092966;28;19912;-38
2021/06/08 07:01:13;;;;;;;;;;;;;;;33.81;32.46;99656.66;5091245;28;19912;-38
2021/06/08 07:03:40;;;;;;;;;;;;;;;34.24;31.38;99654.00;5092176;28;20122;-38
2021/06/08 07:06:05;;;;;;;;;;;;;;;34.39;31.19;99653.09;5090857;28;19918;-40
2021/06/08 07:08:31;;;;;;;;;;;;;;;34.62;30.87;99646.78;5090888;28;19998;-38
2021/06/08 07:10:56;;;;;;;;;;;;;;;34.65;30.40;99648.81;5091934;28;19912;-38
2021/06/08 07:13:22;;;;;;;;;;;;;;;34.82;30.43;99645.59;5092151;28;19973;-38
2021/06/08 07:15:47;;;;;;;;;;;;;;;35.31;30.38;99643.19;5090831;28;19916;-37
2021/06/08 07:18:13;;;;;;;;;;;;;;;35.72;29.87;99646.94;5091942;28;20348;-38
2021/06/08 07:20:38;;;;;;;;;;;;;;;36.13;29.23;99638.72;5091744;28;19965;-38
2021/06/08 07:23:03;;;;;;;;;;;;;;;36.56;28.51;99641.16;5091876;28;19913;-39
2021/06/08 07:25:34;;;;;;;;;;;;;;;36.19;28.11;99631.72;5091890;28;19912;-37
2021/06/08 07:27:59;;;;;;;;;;;;;;;35.19;29.19;99636.72;5090551;28;19969;-38
2021/06/08 07:30:24;;;;;;;;;;;;;;;35.62;29.25;99633.72;5091469;28;19919;-41
2021/06/08 07:32:55;;;;;;;;;;;;;;;35.78;28.89;99633.56;5090174;28;19931;-37
2021/06/08 07:35:22;;;;;;;;;;;;;;;36.28;28.96;99633.38;5090179;28;20007;-38
2021/06/08 07:37:48;;;;;;;;;;;;;;;36.69;27.40;99631.41;5090269;28;20010;-38
2021/06/08 07:40:17;;;;;;;;;;;;;;;36.00;27.93;99637.38;5091381;28;19951;-38
2021/06/08 07:42:43;;;;;;;;;;;;;;;36.85;26.97;99622.81;5090668;28;19919;-39
2021/06/08 07:45:08;;;;;;;;;;;;;;;35.16;29.15;99633.84;5089854;28;19912;-38
2021/06/08 07:47:34;;;;;;;;;;;;;;;36.26;27.46;99638.50;5089821;28;19912;-38
2021/06/08 07:50:00;;;;;;;;;;;;;;;35.90;28.55;99627.00;5090167;28;19912;-39
2021/06/08 07:52:25;;;;;;;;;;;;;;;36.76;27.30;99623.13;5091569;28;19916;-38
2021/06/08 07:54:51;;;;;;;;;;;;;;;36.74;27.06;99619.94;5090140;28;20443;-38
2021/06/08 07:57:17;;;;;;;;;;;;;;;35.79;28.20;99621.31;5089769;28;19935;-38
2021/06/08 07:59:42;;;;;;;;;;;;;;;36.66;28.10;99625.84;5091180;28;20299;-38
2021/06/08 08:02:11;;;;;;;;;;;;;;;37.06;27.50;99622.16;5091780;28;19919;-38
2021/06/08 08:04:39;;;;;;;;;;;;;;;37.37;27.21;99629.09;5091413;28;19908;-38
2021/06/08 08:07:05;;;;;;;;;;;;;;;37.88;25.40;99627.38;5090994;28;19913;-37
2021/06/08 08:09:30;;;;;;;;;;;;;;;37.42;25.88;99624.41;5089390;28;19962;-37
2021/06/08 08:11:55;;;;;;;;;;;;;;;37.27;27.11;99621.53;5089539;28;19912;-38
2021/06/08 08:14:21;;;;;;;;;;;;;;;36.97;26.46;99622.50;5090814;28;19920;-37
2021/06/08 08:16:47;;;;;;;;;;;;;;;37.42;26.13;99621.63;5090679;28;19920;-38
2021/06/08 08:19:12;;;;;;;;;;;;;;;37.33;26.16;99617.19;5090433;28;20280;-38
2021/06/08 08:21:38;;;;;;;;;;;;;;;37.97;25.77;99620.66;5090426;28;19912;-38
2021/06/08 08:24:03;;;;;;;;;;;;;;;37.56;26.05;99619.69;5090467;28;20387;-39
2021/06/08 08:26:28;;;;;;;;;;;;;;;38.18;25.48;99615.19;5090762;28;19998;-39
2021/06/08 08:28:59;;;;;;;;;;;;;;;38.53;25.05;99613.63;5090294;28;20302;-40
2021/06/08 08:31:27;;;;;;;;;;;;;;;38.69;25.02;99610.47;5089981;28;19918;-39
2021/06/08 08:33:53;;;;;;;;;;;;;;;38.42;24.43;99601.72;5090411;28;19924;-39
2021/06/08 08:36:18;;;;;;;;;;;;;;;38.26;24.96;99605.69;5090460;28;19969;-38
2021/06/08 08:38:43;;;;;;;;;;;;;;;38.44;24.86;99602.94;5090274;28;19912;-36
2021/06/08 08:41:09;;;;;;;;;;;;;;;37.95;24.41;99602.41;5090322;28;19919;-39
2021/06/08 08:43:34;;;;;;;;;;;;;;;37.13;24.13;99602.84;5089603;28;20014;-39
2021/06/08 08:45:59;;;;;;;;;;;;;;;36.82;24.89;99589.53;5090174;28;19954;-38
2021/06/08 08:48:25;;;;;;;;;;;;;;;36.95;25.75;99594.34;5089770;28;20000;-39
2021/06/08 08:50:51;;;;;;;;;;;;;;;36.92;24.78;99580.50;5090178;28;19951;-39
2021/06/08 08:53:19;;;;;;;;;;;;;;;36.99;24.64;99574.97;5090112;28;20072;-38
2021/06/08 08:55:45;;;;;;;;;;;;;;;34.94;26.34;99574.69;5089908;28;19912;-40
2021/06/08 08:58:11;;;;;;;;;;;;;;;34.58;26.99;99569.38;5090188;28;20016;-38
2021/06/08 09:00:36;;;;;;;;;;;;;;;33.07;29.88;99566.41;5090677;28;20117;-37
2021/06/08 09:03:03;;;;;;;;;;;;;;;33.83;29.08;99557.78;5089715;28;19912;-38
2021/06/08 09:05:34;;;;;;;;;;;;;;;33.28;29.56;99565.28;5089463;28;20080;-38
2021/06/08 09:07:59;;;;;;;;;;;;;;;33.17;28.89;99564.25;5089722;28;20351;-39
2021/06/08 09:10:24;;;;;;;;;;;;;;;33.87;28.11;99555.06;5089318;28;19920;-38
2021/06/08 09:12:50;;;;;;;;;;;;;;;33.53;28.74;99562.25;5088796;28;19912;-38
2021/06/08 09:15:15;;;;;;;;;;;;;;;33.15;29.29;99558.28;5089309;28;20303;-38
2021/06/08 09:17:40;;;;;;;;;;;;;;;33.63;28.34;99557.00;5089475;28;19943;-38
2021/06/08 09:20:07;;;;;;;;;;;;;;;34.24;27.37;99551.84;5089857;28;19967;-38
2021/06/08 09:22:50;;;;;;;;;;;;;;;33.69;28.37;99546.47;5101051;28;20351;-42
2021/06/08 09:25:36;;;;;;;;;;;;;;;31.84;30.46;99547.16;5110110;28;20387;-37
2021/06/08 09:28:20;;;;;;;;;;;;;;;31.13;32.20;99536.47;5110027;28;19985;-38
2021/06/08 09:31:04;;;;;;;;;;;;;;;31.44;30.66;99535.00;5101760;28;19919;-38
2021/06/08 09:33:40;;;;;;;;;;;;;;;32.26;30.58;99533.75;5089635;28;19912;-39
2021/06/08 09:36:05;;;;;;;;;;;;;;;32.98;29.98;99529.97;5089760;28;19912;-37
2021/06/08 09:38:41;;;;;;;;;;;;;;;33.78;29.04;99536.00;5089471;28;19916;-44
2021/06/08 09:41:19;;;;;;;;;;;;;;;33.67;28.39;99527.50;5089449;28;19923;-38
2021/06/08 09:43:52;;;;;;;;;;;;;;;33.33;30.32;99523.66;5089475;28;19916;-38
2021/06/08 09:46:20;;;;;;;;;;;;;;;34.35;29.12;99522.44;5089305;28;19912;-39
2021/06/08 09:48:49;;;;;;;;;;;;;;;34.07;27.94;99517.22;5088113;28;20002;-38
2021/06/08 09:51:15;;;;;;;;;;;;;;;32.86;29.68;99530.88;5088247;28;19919;-39
2021/06/08 09:53:40;;;;;;;;;;;;;;;32.92;30.35;99521.19;5089548;28;19920;-39
2021/06/08 09:56:07;;;;;;;;;;;;;;;33.20;29.66;99517.47;5089420;28;19919;-38
2021/06/08 09:58:32;;;;;;;;;;;;;;;32.91;30.41;99519.56;5089382;28;19935;-38
2021/06/08 10:01:11;;;;;;;;;;;;;;;33.13;30.53;99503.56;5089584;28;20308;-39
2021/06/08 10:03:40;;;;;;;;;;;;;;;33.57;30.54;99499.72;5093447;28;19920;-39
2021/06/08 10:06:06;;;;;;;;;;;;;;;33.90;29.84;99507.44;5093244;28;19916;-39
2021/06/08 10:08:31;;;;;;;;;;;;;;;33.78;29.30;99500.13;5092789;28;19923;-37
2021/06/08 10:10:59;;;;;;;;;;;;;;;32.87;28.98;99499.41;5092837;28;19963;-39
2021/06/08 10:13:24;;;;;;;;;;;;;;;32.06;30.80;99491.56;5092529;28;20295;-38
2021/06/08 10:15:59;;;;;;;;;;;;;;;31.89;31.18;99483.59;5092995;28;20406;-38
2021/06/08 10:18:25;;;;;;;;;;;;;;;31.84;30.78;99487.41;5092865;28;19924;-38
2021/06/08 10:20:51;;;;;;;;;;;;;;;31.85;31.40;99490.97;5093504;28;20211;-38
2021/06/08 10:23:20;;;;;;;;;;;;;;;32.65;30.68;99484.38;5092599;28;19916;-38
2021/06/08 10:25:45;;;;;;;;;;;;;;;31.74;30.72;99482.44;5091776;28;19955;-38
2021/06/08 10:28:12;;;;;;;;;;;;;;;31.32;31.48;99474.56;5092510;28;20051;-37
2021/06/08 10:30:38;;;;;;;;;;;;;;;32.11;30.23;99476.75;5091612;28;19922;-37
2021/06/08 10:33:04;;;;;;;;;;;;;;;31.34;32.11;99488.78;5091270;28;20410;-39
2021/06/08 10:35:29;;;;;;;;;;;;;;;30.53;33.22;99478.47;5092457;28;20019;-37
2021/06/08 10:37:54;;;;;;;;;;;;;;;31.14;32.69;99482.31;5092110;28;19920;-38
2021/06/08 10:40:20;;;;;;;;;;;;;;;30.38;33.91;99477.22;5090884;28;20450;-38
2021/06/08 10:42:45;;;;;;;;;;;;;;;30.56;34.07;99475.06;5092787;28;20003;-38
2021/06/08 10:45:11;;;;;;;;;;;;;;;31.56;32.79;99481.94;5091289;28;19916;-37
2021/06/08 10:47:45;;;;;;;;;;;;;;;31.32;33.13;99480.06;5092731;28;19982;-38
2021/06/08 10:50:23;;;;;;;;;;;;;;;30.48;33.58;99475.97;5092166;28;20061;-38
2021/06/08 10:52:49;;;;;;;;;;;;;;;30.15;34.51;99476.03;5092621;28;19912;-38
2021/06/08 10:55:14;;;;;;;;;;;;;;;30.70;33.96;99480.19;5091926;28;19927;-38
2021/06/08 10:57:43;;;;;;;;;;;;;;;30.62;33.08;99475.63;5090202;28;19919;-38
2021/06/08 11:00:09;;;;;;;;;;;;;;;30.88;33.27;99478.00;5092016;28;19963;-39
2021/06/08 11:02:40;;;;;;;;;;;;;;;31.30;32.41;99469.44;5090406;28;19944;-37
2021/06/08 11:05:06;;;;;;;;;;;;;;;32.30;31.37;99476.81;5091666;28;20002;-37
2021/06/08 11:07:52;;;;;;;;;;;;;;;32.45;30.39;99471.66;5091753;28;19930;-38
2021/06/08 11:10:27;;;;;;;;;;;;;;;31.03;32.06;99462.75;5091844;28;19969;-37
2021/06/08 11:13:11;;;;;;;;;;;;;;;30.13;33.82;99467.34;5091409;28;19934;-38
2021/06/08 11:15:36;;;;;;;;;;;;;;;28.66;35.88;99471.03;5091608;28;19928;-37
2021/06/08 11:18:25;;;;;;;;;;;;;;;28.89;35.77;99473.47;5091294;28;19954;-38
2021/06/08 11:20:57;;;;;;;;;;;;;;;28.47;36.79;99487.84;5090478;28;20002;-38
2021/06/08 11:23:34;;;;;;;;;;;;;;;26.90;39.72;99463.44;5091538;28;19942;-37
2021/06/08 11:25:59;;;;;;;;;;;;;;;26.86;40.48;99470.66;5091813;28;19916;-39
2021/06/08 11:28:45;;;;;;;;;;;;;;;27.19;38.70;99481.13;5091658;28;19923;-38
2021/06/08 11:31:11;;;;;;;;;;;;;;;26.37;38.73;99483.50;5090684;28;19970;-39
2021/06/08 11:33:37;;;;;;;;;;;;;;;26.07;39.39;99477.75;5091422;28;19974;-38
2021/06/08 11:36:03;;;;;;;;;;;;;;;25.62;40.11;99466.88;5091349;28;19912;-37
2021/06/08 11:38:35;;;;;;;;;;;;;;;25.25;40.27;99482.47;5090085;28;20019;-37
2021/06/08 11:41:01;;;;;;;;;;;;;;;25.24;39.76;99465.31;5091276;28;19974;-38
2021/06/08 11:43:27;;;;;;;;;;;;;;;25.04;38.86;99463.03;5091528;28;19961;-38
2021/06/08 11:46:12;;;;;;;;;;;;;;;25.33;38.06;99468.91;5091328;28;20058;-38
2021/06/08 11:48:37;;;;;;;;;;;;;;;25.28;37.52;99455.41;5091322;28;20350;-38
2021/06/08 11:51:14;;;;;;;;;;;;;;;25.06;37.60;99477.94;5091177;28;19912;-39
2021/06/08 11:53:59;;;;;;;;;;;;;;;24.61;38.96;99466.94;5091339;28;19955;-37
2021/06/08 11:56:43;;;;;;;;;;;;;;;24.35;39.97;99451.09;5091127;28;20320;-38
2021/06/08 11:59:08;;;;;;;;;;;;;;;24.84;39.70;99467.81;5090885;28;20017;-37
2021/06/08 12:01:39;;;;;;;;;;;;;;;25.14;38.47;99479.94;5091318;28;20379;-38
2021/06/08 12:04:04;;;;;;;;;;;;;;;25.41;37.86;99456.47;5090800;28;20003;-38
2021/06/08 12:06:48;;;;;;;;;;;;;;;25.75;36.73;99447.72;5091024;28;19948;-38
2021/06/08 12:09:17;;;;;;;;;;;;;;;25.90;36.58;99451.19;5090698;28;19951;-37
2021/06/08 12:11:42;;;;;;;;;;;;;;;26.02;36.03;99445.97;5089393;28;19994;-37
2021/06/08 12:14:08;;;;;;;;;;;;;;;26.72;35.26;99454.44;5089420;28;20380;-38
2021/06/08 12:16:33;;;;;;;;;;;;;;;26.60;35.76;99446.03;5090819;28;19936;-38
2021/06/08 12:18:58;;;;;;;;;;;;;;;26.48;35.07;99466.53;5089528;28;19969;-37
2021/06/08 12:21:25;;;;;;;;;;;;;;;26.07;36.34;99454.03;5091126;28;19943;-37
2021/06/08 12:23:51;;;;;;;;;;;;;;;26.37;35.49;99454.31;5110610;28;19938;-37
2021/06/08 12:26:21;;;;;;;;;;;;;;;26.44;35.90;99445.66;5110524;28;19990;-39
2021/06/08 12:29:11;;;;;;;;;;;;;;;26.85;34.06;99449.97;5111081;28;19963;-37
2021/06/08 12:31:37;;;;;;;;;;;;;;;26.94;33.71;99434.41;5095074;28;19939;-38
2021/06/08 12:34:11;;;;;;;;;;;;;;;27.35;34.48;99452.25;5090303;28;19916;-37
2021/06/08 12:36:40;;;;;;;;;;;;;;;26.95;34.66;99446.91;5090348;28;19951;-38
2021/06/08 12:39:09;;;;;;;;;;;;;;;27.07;35.02;99446.25;5090283;28;19915;-38
2021/06/08 12:41:34;;;;;;;;;;;;;;;27.24;35.48;99449.00;5090246;28;19912;-38
2021/06/08 12:44:00;;;;;;;;;;;;;;;26.89;35.79;99437.28;5090541;28;19919;-38
2021/06/08 12:46:26;;;;;;;;;;;;;;;26.37;37.27;99427.03;5090398;28;20354;-37
2021/06/08 12:49:04;;;;;;;;;;;;;;;26.70;36.54;99430.19;5089977;28;19916;-38